createdAt,value
2022-12-06T00:01:35.210Z,2.67
2022-12-06T00:04:12.429Z,2.55
2022-12-06T00:06:51.687Z,2.83
2022-12-06T00:09:30.021Z,2.53
2022-12-06T00:11:58.406Z,2.88
2022-12-06T00:14:29.088Z,2.13
2022-12-06T00:17:01.827Z,3.17
2022-12-06T00:19:34.937Z,2.25
2022-12-06T00:22:05.567Z,2.92
2022-12-06T00:24:34.907Z,3.03
2022-12-06T00:27:04.689Z,3.03
2022-12-06T00:29:32.746Z,2.78
2022-12-06T00:31:59.693Z,2.15
2022-12-06T00:34:27.841Z,2.67
2022-12-06T00:36:57.459Z,2.83
2022-12-06T00:39:24.661Z,2.15
2022-12-06T00:41:55.886Z,3.95
2022-12-06T00:44:25.531Z,3.72
2022-12-06T00:46:53.720Z,2.92
2022-12-06T00:49:23.668Z,2.17
2022-12-06T00:51:52.439Z,3.10
2022-12-06T00:54:25.613Z,3.45
2022-12-06T00:56:54.170Z,3.20
2022-12-06T00:59:23.030Z,3.13
2022-12-06T01:01:51.699Z,2.35
2022-12-06T01:04:19.406Z,3.88
2022-12-06T01:06:49.091Z,3.35
2022-12-06T01:09:16.829Z,2.88
2022-12-06T01:11:47.334Z,3.33
2022-12-06T01:14:14.235Z,2.72
2022-12-06T01:16:41.193Z,4.20
2022-12-06T01:19:12.993Z,3.63
2022-12-06T01:21:41.695Z,3.03
2022-12-06T01:24:08.514Z,3.13
2022-12-06T01:26:36.042Z,3.05
2022-12-06T01:29:03.992Z,2.42
2022-12-06T01:31:37.789Z,3.17
2022-12-06T01:34:07.183Z,2.70
2022-12-06T01:36:35.005Z,3.30
2022-12-06T01:39:06.392Z,2.50
2022-12-06T01:41:33.146Z,3.78
2022-12-06T01:43:59.911Z,3.30
2022-12-06T01:46:44.752Z,2.45
2022-12-06T01:49:26.282Z,2.75
2022-12-06T01:51:58.922Z,3.35
2022-12-06T01:54:26.281Z,3.45
2022-12-06T01:56:55.624Z,3.30
2022-12-06T01:59:27.617Z,3.05
2022-12-06T02:01:56.031Z,2.38
2022-12-06T02:04:24.704Z,3.22
2022-12-06T02:06:54.459Z,2.45
2022-12-06T02:09:46.873Z,3.28
2022-12-06T02:12:16.309Z,2.15
2022-12-06T02:14:50.712Z,2.25
2022-12-06T02:17:52.828Z,2.63
2022-12-06T02:20:43.732Z,2.83
2022-12-06T02:23:50.635Z,2.90
2022-12-06T02:26:28.611Z,2.63
2022-12-06T02:29:17.028Z,2.97
2022-12-06T02:32:03.404Z,2.97
2022-12-06T02:34:51.117Z,2.78
2022-12-06T02:37:29.444Z,3.47
2022-12-06T02:40:11.709Z,5.93
2022-12-06T02:43:03.097Z,3.45
2022-12-06T02:45:37.965Z,4.00
2022-12-06T02:48:10.505Z,3.45
2022-12-06T02:50:44.145Z,3.00
2022-12-06T02:53:16.473Z,3.15
2022-12-06T02:55:45.437Z,3.45
2022-12-06T02:58:14.956Z,3.17
2022-12-06T03:00:59.381Z,2.15
2022-12-06T03:03:40.838Z,2.80
2022-12-06T03:06:23.327Z,3.33
2022-12-06T03:09:44.556Z,2.97
2022-12-06T03:12:17.322Z,2.63
2022-12-06T03:15:03.086Z,3.53
2022-12-06T03:17:39.965Z,4.25
2022-12-06T03:20:19.911Z,3.20
2022-12-06T03:22:52.964Z,2.90
2022-12-06T03:25:25.822Z,2.38
2022-12-06T03:27:54.868Z,2.30
2022-12-06T03:30:22.229Z,3.13
2022-12-06T03:32:51.025Z,2.85
2022-12-06T03:35:26.481Z,3.45
2022-12-06T03:38:09.205Z,2.85
2022-12-06T03:40:41.325Z,2.75
2022-12-06T03:43:08.995Z,2.47
2022-12-06T03:45:50.755Z,2.70
2022-12-06T03:48:26.865Z,2.97
2022-12-06T03:51:08.823Z,2.33
2022-12-06T03:53:51.009Z,2.50
2022-12-06T03:56:19.406Z,2.85
2022-12-06T03:58:47.955Z,2.55
2022-12-06T04:01:18.169Z,3.05
2022-12-06T04:03:45.159Z,2.72
2022-12-06T04:06:13.803Z,3.05
2022-12-06T04:08:42.516Z,3.17
2022-12-06T04:11:09.491Z,3.38
2022-12-06T04:13:36.611Z,1.73
2022-12-06T04:16:24.501Z,3.10
2022-12-06T04:18:53.219Z,2.85
2022-12-06T04:21:36.744Z,2.95
2022-12-06T04:24:04.616Z,2.50
2022-12-06T04:26:33.515Z,3.47
2022-12-06T04:29:18.744Z,3.63
2022-12-06T04:32:05.033Z,2.85
2022-12-06T04:34:50.592Z,3.65
2022-12-06T04:37:35.975Z,3.22
2022-12-06T04:40:03.130Z,2.70
2022-12-06T04:42:48.637Z,2.75
2022-12-06T04:45:15.332Z,3.35
2022-12-06T04:47:43.027Z,3.03
2022-12-06T04:50:10.196Z,2.42
2022-12-06T04:52:36.905Z,2.85
2022-12-06T04:55:05.127Z,2.85
2022-12-06T04:57:33.002Z,2.78
2022-12-06T05:00:00.164Z,2.28
2022-12-06T05:02:27.137Z,2.08
2022-12-06T05:04:53.865Z,2.58
2022-12-06T05:07:20.800Z,3.00
2022-12-06T05:09:47.600Z,2.88
2022-12-06T05:12:14.503Z,2.20
2022-12-06T05:14:41.311Z,2.78
2022-12-06T05:17:08.062Z,3.30
2022-12-06T05:19:34.939Z,2.55
2022-12-06T05:22:02.328Z,3.55
2022-12-06T05:24:31.652Z,2.45
2022-12-06T05:26:58.471Z,3.50
2022-12-06T05:29:25.224Z,2.92
2022-12-06T05:31:53.181Z,2.22
2022-12-06T05:34:20.577Z,3.15
2022-12-06T05:36:47.399Z,9.63
2022-12-06T05:39:19.070Z,2.15
2022-12-06T05:41:45.872Z,2.20
2022-12-06T05:44:13.740Z,3.40
2022-12-06T05:46:40.471Z,2.97
2022-12-06T05:49:07.280Z,3.40
2022-12-06T05:51:34.048Z,3.88
2022-12-06T05:54:07.745Z,2.85
2022-12-06T05:56:34.673Z,2.90
2022-12-06T05:59:01.457Z,2.55
2022-12-06T06:01:30.725Z,2.42
2022-12-06T06:03:57.781Z,2.55
2022-12-06T06:06:25.735Z,3.38
2022-12-06T06:08:52.593Z,2.53
2022-12-06T06:11:22.516Z,2.63
2022-12-06T06:13:50.999Z,2.80
2022-12-06T06:16:17.845Z,2.53
2022-12-06T06:18:44.630Z,2.50
2022-12-06T06:21:11.409Z,2.58
2022-12-06T06:23:38.244Z,3.70
2022-12-06T06:26:10.055Z,2.88
2022-12-06T06:28:38.620Z,2.95
2022-12-06T06:31:06.480Z,3.10
2022-12-06T06:33:33.555Z,2.35
2022-12-06T06:36:00.292Z,3.28
2022-12-06T06:38:27.096Z,2.20
2022-12-06T06:40:57.402Z,3.28
2022-12-06T06:43:24.264Z,3.25
2022-12-06T06:45:58.723Z,2.47
2022-12-06T06:48:27.384Z,2.95
2022-12-06T06:50:57.698Z,2.58
2022-12-06T06:53:27.277Z,2.65
2022-12-06T06:55:54.257Z,2.40
2022-12-06T06:58:21.188Z,2.28
2022-12-06T07:00:56.084Z,3.25
2022-12-06T07:03:23.894Z,2.63
2022-12-06T07:06:02.088Z,3.00
2022-12-06T07:08:30.892Z,2.42
2022-12-06T07:10:58.031Z,2.78
2022-12-06T07:13:27.024Z,3.25
2022-12-06T07:15:53.783Z,2.88
2022-12-06T07:18:21.349Z,2.92
2022-12-06T07:20:48.859Z,2.97
2022-12-06T07:23:15.872Z,2.83
2022-12-06T07:25:43.062Z,2.40
2022-12-06T07:28:09.813Z,2.67
2022-12-06T07:30:36.598Z,2.60
2022-12-06T07:33:03.684Z,2.97
2022-12-06T07:35:55.669Z,1.95
2022-12-06T07:38:17.392Z,2.97
2022-12-06T07:43:49.468Z,2.45
2022-12-06T07:46:16.321Z,3.30
2022-12-06T07:48:43.390Z,2.15
2022-12-06T07:51:10.736Z,2.60
2022-12-06T07:53:37.568Z,2.30
2022-12-06T07:56:08.417Z,2.58
2022-12-06T07:58:37.234Z,3.10
2022-12-06T08:01:05.250Z,3.05
2022-12-06T08:03:32.302Z,2.60
2022-12-06T08:05:59.086Z,1.73
2022-12-06T08:08:28.743Z,2.08
2022-12-06T08:11:00.074Z,1.98
2022-12-06T08:13:27.385Z,1.85
2022-12-06T08:15:54.276Z,2.65
2022-12-06T08:18:21.668Z,2.35
2022-12-06T08:20:50.314Z,1.83
2022-12-06T08:23:17.101Z,2.38
2022-12-06T08:25:43.903Z,2.60
2022-12-06T08:28:10.978Z,2.20
2022-12-06T08:30:41.538Z,2.15
2022-12-06T08:33:08.591Z,2.00
2022-12-06T08:35:38.279Z,2.08
2022-12-06T08:38:05.098Z,1.92
2022-12-06T08:40:33.078Z,1.65
2022-12-06T08:42:59.820Z,2.05
2022-12-06T08:45:26.700Z,1.65
2022-12-06T08:47:53.572Z,1.65
2022-12-06T08:50:20.302Z,1.55
2022-12-06T08:52:47.120Z,1.88
2022-12-06T08:55:13.846Z,2.03
2022-12-06T08:57:40.582Z,2.25
2022-12-06T09:00:07.961Z,1.70
2022-12-06T09:02:34.733Z,2.08
2022-12-06T09:05:02.072Z,2.60
2022-12-06T09:07:29.020Z,1.85
2022-12-06T09:09:56.003Z,1.92
2022-12-06T09:12:23.608Z,2.13
2022-12-06T09:14:50.521Z,1.77
2022-12-06T09:17:17.721Z,1.65
2022-12-06T09:19:44.656Z,1.60
2022-12-06T09:22:11.421Z,2.10
2022-12-06T09:24:38.352Z,1.48
2022-12-06T09:27:05.205Z,2.38
2022-12-06T09:29:36.068Z,2.13
2022-12-06T09:32:05.770Z,2.03
2022-12-06T09:34:32.441Z,2.17
2022-12-06T09:37:08.083Z,1.60
2022-12-06T09:39:40.309Z,1.95
2022-12-06T09:42:10.139Z,1.70
2022-12-06T09:44:57.909Z,1.27
2022-12-06T09:47:30.436Z,1.48
2022-12-06T09:50:09.474Z,1.58
2022-12-06T09:52:47.657Z,1.60
2022-12-06T09:55:14.516Z,1.35
2022-12-06T09:58:03.022Z,2.00
2022-12-06T10:00:41.101Z,1.60
2022-12-06T10:03:27.896Z,1.55
2022-12-06T10:06:07.804Z,1.63
2022-12-06T10:08:49.780Z,1.17
2022-12-06T10:11:40.284Z,1.33
2022-12-06T10:14:16.480Z,1.95
2022-12-06T10:16:55.941Z,2.22
2022-12-06T10:19:42.738Z,1.00
2022-12-06T10:22:16.661Z,1.17
2022-12-06T10:24:51.140Z,0.88
2022-12-06T10:27:35.398Z,1.02
2022-12-06T10:30:14.153Z,1.10
2022-12-06T10:32:55.356Z,1.15
2022-12-06T10:35:40.797Z,1.20
2022-12-06T10:38:36.755Z,1.45
2022-12-06T10:41:21.491Z,1.40
2022-12-06T10:44:22.754Z,1.52
2022-12-06T10:47:12.176Z,1.15
2022-12-06T10:49:46.679Z,1.10
2022-12-06T10:52:41.091Z,0.82
2022-12-06T10:55:11.221Z,1.02
2022-12-06T10:57:50.167Z,1.10
2022-12-06T11:00:23.095Z,1.63
2022-12-06T11:03:07.977Z,1.20
2022-12-06T11:05:42.669Z,0.73
2022-12-06T11:08:37.777Z,1.20
2022-12-06T11:11:06.366Z,0.90
2022-12-06T11:13:33.077Z,2.08
2022-12-06T11:16:24.438Z,1.77
2022-12-06T11:18:55.873Z,0.93
2022-12-06T11:21:40.124Z,1.10
2022-12-06T11:24:26.485Z,1.80
2022-12-06T11:26:59.353Z,1.30
2022-12-06T11:29:26.506Z,1.10
2022-12-06T11:32:00.866Z,1.20
2022-12-06T11:34:46.040Z,0.95
2022-12-06T11:37:21.035Z,1.08
2022-12-06T11:39:51.115Z,1.02
2022-12-06T11:42:23.895Z,0.85
2022-12-06T11:45:10.454Z,0.70
2022-12-06T11:47:37.240Z,0.93
2022-12-06T11:50:08.632Z,1.00
2022-12-06T11:52:47.635Z,0.98
2022-12-06T11:55:37.913Z,0.55
2022-12-06T11:58:22.147Z,1.25
2022-12-06T12:03:34.419Z,1.10
2022-12-06T12:06:23.933Z,0.88
2022-12-06T12:09:05.042Z,0.88
2022-12-06T12:11:34.813Z,0.73
2022-12-06T12:14:04.604Z,1.63
2022-12-06T12:16:38.339Z,1.55
2022-12-06T12:19:23.142Z,1.42
2022-12-06T12:21:54.520Z,2.30
2022-12-06T12:27:41.384Z,1.60
2022-12-06T12:30:28.085Z,1.17
2022-12-06T12:33:07.988Z,3.05
2022-12-06T12:35:38.282Z,1.42
2022-12-06T12:38:14.919Z,1.00
2022-12-06T12:40:45.561Z,1.05
2022-12-06T12:43:13.112Z,1.08
2022-12-06T12:46:03.088Z,2.20
2022-12-06T12:48:31.203Z,1.13
2022-12-06T12:51:01.953Z,1.83
2022-12-06T12:53:36.813Z,1.83
2022-12-06T12:56:13.016Z,1.45
2022-12-06T12:58:40.509Z,1.63
2022-12-06T13:01:25.502Z,1.85
2022-12-06T13:04:16.605Z,0.95
2022-12-06T13:07:17.388Z,2.17
2022-12-06T13:10:01.274Z,1.48
2022-12-06T13:12:47.667Z,1.02
2022-12-06T13:15:30.052Z,0.95
2022-12-06T13:18:17.887Z,0.90
2022-12-06T13:20:46.922Z,1.67
2022-12-06T13:23:19.015Z,0.93
2022-12-06T13:26:28.960Z,1.45
2022-12-06T13:29:02.959Z,1.70
2022-12-06T13:31:35.496Z,0.75
2022-12-06T13:34:23.396Z,1.48
2022-12-06T13:36:52.133Z,1.02
2022-12-06T13:39:37.540Z,0.95
2022-12-06T13:42:41.607Z,1.50
2022-12-06T13:45:45.417Z,1.50
2022-12-06T13:48:24.485Z,0.73
2022-12-06T13:50:53.245Z,0.95
2022-12-06T13:53:22.286Z,0.65
2022-12-06T13:55:53.486Z,0.73
2022-12-06T13:58:28.258Z,0.55
2022-12-06T14:00:56.944Z,0.75
2022-12-06T14:03:26.590Z,0.88
2022-12-06T14:06:15.354Z,0.98
2022-12-06T14:08:59.475Z,0.70
2022-12-06T14:11:38.123Z,0.63
2022-12-06T14:14:17.971Z,0.98
2022-12-06T14:16:46.852Z,0.80
2022-12-06T14:19:20.821Z,0.68
2022-12-06T14:22:00.328Z,1.25
2022-12-06T14:24:37.292Z,0.60
2022-12-06T14:27:16.874Z,0.60
2022-12-06T14:29:45.085Z,0.70
2022-12-06T14:32:11.877Z,0.70
2022-12-06T14:34:38.834Z,1.40
2022-12-06T14:37:19.950Z,1.10
2022-12-06T14:39:52.651Z,1.20
2022-12-06T14:42:38.716Z,1.27
2022-12-06T14:45:13.393Z,1.52
2022-12-06T14:47:40.787Z,1.58
2022-12-06T14:50:51.478Z,0.93
2022-12-06T14:53:36.621Z,0.85
2022-12-06T14:56:25.081Z,1.55
2022-12-06T14:58:52.522Z,0.73
2022-12-06T15:01:20.351Z,0.68
2022-12-06T15:04:01.571Z,0.80
2022-12-06T15:06:30.749Z,1.10
2022-12-06T15:08:57.371Z,1.58
2022-12-06T15:11:47.989Z,1.20
2022-12-06T15:14:19.251Z,0.80
2022-12-06T15:16:58.403Z,0.90
2022-12-06T15:19:25.658Z,0.70
2022-12-06T15:21:53.752Z,0.80
2022-12-06T15:24:25.870Z,1.10
2022-12-06T15:26:53.154Z,1.38
2022-12-06T15:29:20.521Z,1.58
2022-12-06T15:31:51.255Z,2.97
2022-12-06T15:34:27.612Z,1.15
2022-12-06T15:37:29.837Z,1.58
2022-12-06T15:39:43.775Z,1.20
2022-12-06T15:42:12.824Z,1.20
2022-12-06T15:44:42.995Z,1.27
2022-12-06T15:47:12.621Z,2.23
2022-12-06T15:49:40.181Z,1.40
2022-12-06T15:52:17.095Z,1.60
2022-12-06T15:54:44.397Z,1.92
2022-12-06T15:57:11.846Z,1.42
2022-12-06T15:59:38.774Z,2.00
2022-12-06T16:02:15.465Z,1.58
2022-12-06T16:04:42.995Z,1.15
2022-12-06T16:07:10.585Z,1.52
2022-12-06T16:09:37.455Z,1.75
2022-12-06T16:12:04.846Z,2.22
2022-12-06T16:14:31.722Z,1.98
2022-12-06T16:16:58.542Z,2.80
2022-12-06T16:19:45.434Z,2.53
2022-12-06T16:22:12.366Z,1.38
2022-12-06T16:24:40.441Z,1.65
2022-12-06T16:27:08.746Z,1.67
2022-12-06T16:29:35.601Z,2.08
2022-12-06T16:32:02.644Z,2.15
2022-12-06T16:34:30.266Z,2.15
2022-12-06T16:37:06.553Z,2.00
2022-12-06T16:39:35.002Z,1.85
2022-12-06T16:42:04.339Z,1.90
2022-12-06T16:44:31.552Z,1.42
2022-12-06T16:46:58.455Z,2.30
2022-12-06T16:49:46.169Z,1.90
2022-12-06T16:52:15.303Z,1.90
2022-12-06T16:54:42.491Z,1.50
2022-12-06T16:57:11.526Z,1.60
2022-12-06T16:59:38.375Z,1.58
2022-12-06T17:02:19.196Z,1.88
2022-12-06T17:04:45.882Z,1.80
2022-12-06T17:07:12.613Z,1.90
2022-12-06T17:09:39.383Z,1.73
2022-12-06T17:12:06.980Z,2.10
2022-12-06T17:14:35.937Z,1.80
2022-12-06T17:17:04.071Z,2.25
2022-12-06T17:19:33.023Z,2.10
2022-12-06T17:22:02.235Z,2.25
2022-12-06T17:24:29.048Z,1.98
2022-12-06T17:26:56.618Z,2.47
2022-12-06T17:29:24.036Z,2.80
2022-12-06T17:31:51.866Z,2.25
2022-12-06T17:34:33.045Z,2.25
2022-12-06T17:37:02.338Z,2.40
2022-12-06T17:39:29.825Z,2.13
2022-12-06T17:42:15.051Z,2.13
2022-12-06T17:44:41.745Z,1.88
2022-12-06T17:47:08.657Z,2.08
2022-12-06T17:49:36.074Z,3.00
2022-12-06T17:52:02.853Z,2.30
2022-12-06T17:54:29.803Z,1.90
2022-12-06T17:56:57.225Z,1.92
2022-12-06T17:59:26.303Z,2.13
2022-12-06T18:02:15.285Z,1.80
2022-12-06T18:04:43.795Z,2.03
2022-12-06T18:07:12.046Z,2.47
2022-12-06T18:09:38.879Z,1.95
2022-12-06T18:12:08.753Z,2.10
2022-12-06T18:14:35.585Z,3.25
2022-12-06T18:17:04.029Z,2.00
2022-12-06T18:19:31.221Z,3.35
2022-12-06T18:21:58.122Z,1.52
2022-12-06T18:24:29.154Z,2.45
2022-12-06T18:26:58.638Z,2.58
2022-12-06T18:29:25.480Z,1.73
2022-12-06T18:31:52.588Z,2.22
2022-12-06T18:34:20.098Z,1.65
2022-12-06T18:36:47.522Z,2.70
2022-12-06T18:39:16.656Z,2.28
2022-12-06T18:41:45.050Z,2.13
2022-12-06T18:44:13.217Z,2.58
2022-12-06T18:46:42.287Z,2.15
2022-12-06T18:49:11.440Z,3.17
2022-12-06T18:51:39.044Z,2.25
2022-12-06T18:54:07.285Z,2.90
2022-12-06T18:56:35.076Z,1.83
2022-12-06T18:59:05.074Z,3.38
2022-12-06T19:01:34.441Z,3.72
2022-12-06T19:04:03.332Z,3.05
2022-12-06T19:06:32.410Z,2.97
2022-12-06T19:09:03.531Z,2.42
2022-12-06T19:11:30.307Z,2.85
2022-12-06T19:14:01.548Z,2.65
2022-12-06T19:16:46.667Z,2.60
2022-12-06T19:19:19.240Z,2.08
2022-12-06T19:21:47.500Z,3.40
2022-12-06T19:24:17.754Z,2.58
2022-12-06T19:26:44.851Z,2.70
2022-12-06T19:29:12.749Z,3.45
2022-12-06T19:31:40.493Z,3.67
2022-12-06T19:34:12.879Z,3.30
2022-12-06T19:36:39.552Z,2.60
2022-12-06T19:39:06.949Z,2.95
2022-12-06T19:41:54.103Z,3.15
2022-12-06T19:44:21.844Z,2.28
2022-12-06T19:46:49.148Z,3.17
2022-12-06T19:49:17.982Z,3.10
2022-12-06T19:51:46.865Z,3.58
2022-12-06T19:54:20.124Z,3.20
2022-12-06T19:56:49.145Z,3.17
2022-12-06T19:59:16.365Z,2.55
2022-12-06T20:01:45.096Z,2.70
2022-12-06T20:04:19.770Z,2.65
2022-12-06T20:06:47.453Z,3.30
2022-12-06T20:09:14.761Z,3.05
2022-12-06T20:12:00.316Z,2.63
2022-12-06T20:14:42.613Z,2.67
2022-12-06T20:17:17.693Z,2.63
2022-12-06T20:19:49.000Z,2.30
2022-12-06T20:22:17.724Z,3.30
2022-12-06T20:24:44.886Z,3.10
2022-12-06T20:27:11.840Z,3.53
2022-12-06T20:29:38.739Z,2.55
2022-12-06T20:32:05.794Z,2.22
2022-12-06T20:34:34.720Z,2.70
2022-12-06T20:37:04.408Z,2.22
2022-12-06T20:39:35.659Z,2.45
2022-12-06T20:42:05.307Z,2.50
2022-12-06T20:44:32.418Z,2.60
2022-12-06T20:47:00.044Z,2.63
2022-12-06T20:49:27.399Z,2.72
2022-12-06T20:51:56.767Z,1.83
2022-12-06T20:54:23.562Z,2.53
2022-12-06T20:56:53.492Z,2.58
2022-12-06T20:59:21.253Z,2.30
2022-12-06T21:01:48.492Z,2.78
2022-12-06T21:04:16.191Z,3.28
2022-12-06T21:06:43.141Z,3.35
2022-12-06T21:09:10.345Z,2.50
2022-12-06T21:11:37.572Z,2.83
2022-12-06T21:14:05.642Z,3.20
2022-12-06T21:16:38.181Z,2.33
2022-12-06T21:19:16.945Z,3.40
2022-12-06T21:21:50.604Z,3.13
2022-12-06T21:24:19.940Z,4.50
2022-12-06T21:26:47.389Z,3.22
2022-12-06T21:29:29.792Z,3.63
2022-12-06T21:31:57.369Z,3.17
2022-12-06T21:34:24.847Z,3.22
2022-12-06T21:36:51.744Z,3.90
2022-12-06T21:39:19.126Z,3.20
2022-12-06T21:41:46.872Z,4.15
2022-12-06T21:44:14.750Z,4.40
2022-12-06T21:46:41.990Z,3.55
2022-12-06T21:49:10.628Z,3.90
2022-12-06T21:51:37.448Z,3.17
2022-12-06T21:54:04.578Z,3.72
2022-12-06T21:56:32.661Z,3.75
2022-12-06T21:59:01.435Z,3.88
2022-12-06T22:01:29.670Z,4.18
2022-12-06T22:04:01.473Z,3.08
2022-12-06T22:06:31.591Z,4.10
2022-12-06T22:09:01.711Z,4.20
2022-12-06T22:11:30.670Z,4.00
2022-12-06T22:13:59.780Z,4.00
2022-12-06T22:16:28.321Z,4.80
2022-12-06T22:18:57.692Z,4.78
2022-12-06T22:21:27.641Z,4.00
2022-12-06T22:23:55.545Z,3.47
2022-12-06T22:26:23.514Z,3.00
2022-12-06T22:28:50.973Z,3.42
2022-12-06T22:31:23.900Z,3.85
2022-12-06T22:33:52.798Z,3.90
2022-12-06T22:36:21.333Z,3.00
2022-12-06T22:38:49.929Z,3.40
2022-12-06T22:41:19.812Z,3.65
2022-12-06T22:43:52.825Z,3.25
2022-12-06T22:46:20.096Z,3.35
2022-12-06T22:48:47.497Z,2.75
2022-12-06T22:51:20.828Z,3.70
2022-12-06T22:53:56.072Z,2.88
2022-12-06T22:56:23.549Z,2.72
2022-12-06T22:58:53.072Z,2.85
2022-12-06T23:01:23.492Z,2.47
2022-12-06T23:03:51.912Z,2.58
2022-12-06T23:06:24.905Z,2.53
2022-12-06T23:08:53.621Z,3.03
2022-12-06T23:11:23.876Z,1.77
2022-12-06T23:13:50.780Z,2.35
2022-12-06T23:16:21.743Z,2.10
2022-12-06T23:18:49.551Z,2.67
2022-12-06T23:21:17.883Z,2.95
2022-12-06T23:23:47.738Z,2.47
2022-12-06T23:26:18.271Z,2.88
2022-12-06T23:28:46.029Z,3.17
2022-12-06T23:31:15.538Z,3.80
2022-12-06T23:33:44.980Z,2.78
2022-12-06T23:36:21.580Z,2.78
2022-12-06T23:38:49.126Z,3.38
2022-12-06T23:41:20.070Z,2.63
2022-12-06T23:43:48.325Z,2.35
2022-12-06T23:46:21.918Z,2.33
2022-12-06T23:48:50.275Z,2.78
2022-12-06T23:51:20.832Z,3.03
2022-12-06T23:53:53.420Z,2.70
2022-12-06T23:56:24.738Z,2.65
2022-12-06T23:58:52.198Z,2.38
